Time,TemperatureF,DewpointF,PressureIn,WindDirection,WindDirectionDegrees,WindSpeedMPH,WindSpeedGustMPH,Humidity,HourlyPrecipIn,Conditions,Clouds,dailyrainin,SoftwareType,DateUTC
2013-03-01 00:01:00,32.0,7.0,-100.00,WNW,295,8.0,12.0,34,-99.99,,,-99.99,,2013-03-01 07:01:00,
2013-03-01 00:11:00,31.0,7.0,-100.00,NW,310,10.0,13.0,35,-99.99,,,-99.99,,2013-03-01 07:11:00,
2013-03-01 00:21:00,33.0,8.0,-100.00,NW,305,11.0,16.0,35,-99.99,,,-99.99,,2013-03-01 07:21:00,
2013-03-01 00:31:00,32.0,8.0,-100.00,NW,320,7.0,14.0,36,-99.99,,,-99.99,,2013-03-01 07:31:00,
2013-03-01 00:41:00,32.0,9.0,-100.00,NW,315,9.0,10.0,37,-99.99,,,-99.99,,2013-03-01 07:41:00,
2013-03-01 00:51:00,33.0,9.0,-100.00,NW,305,11.0,14.0,37,-99.99,,,-99.99,,2013-03-01 07:51:00,
2013-03-01 01:01:00,32.0,9.0,-100.00,NW,305,11.0,13.0,37,-99.99,,,-99.99,,2013-03-01 08:01:00,
2013-03-01 01:11:00,32.0,10.0,-100.00,WNW,295,12.0,14.0,38,-99.99,,,-99.99,,2013-03-01 08:11:00,
2013-03-01 01:21:00,32.0,10.0,-100.00,WNW,300,12.0,14.0,39,-99.99,,,-99.99,,2013-03-01 08:21:00,
2013-03-01 01:31:00,32.0,10.0,-100.00,WNW,295,17.0,20.0,40,-99.99,,,-99.99,,2013-03-01 08:31:00,
2013-03-01 01:42:00,31.0,11.0,-100.00,NW,305,13.0,20.0,42,-99.99,,,-99.99,,2013-03-01 08:42:00,
2013-03-01 01:52:00,31.0,11.0,-100.00,WNW,300,11.0,16.0,43,-99.99,,,-99.99,,2013-03-01 08:52:00,
2013-03-01 02:01:00,32.0,11.0,-100.00,NW,320,11.0,14.0,42,-99.99,,,-99.99,,2013-03-01 09:01:00,
2013-03-01 02:11:00,31.0,11.0,-100.00,WNW,295,9.0,12.0,42,-99.99,,,-99.99,,2013-03-01 09:11:00,
2013-03-01 02:21:00,31.0,11.0,-100.00,NW,315,9.0,12.0,43,-99.99,,,-99.99,,2013-03-01 09:21:00,
2013-03-01 02:31:00,31.0,11.0,-100.00,WNW,300,12.0,14.0,43,-99.99,,,-99.99,,2013-03-01 09:31:00,
2013-03-01 02:41:00,31.0,11.0,-100.00,WNW,300,12.0,14.0,42,-99.99,,,-99.99,,2013-03-01 09:41:00,
2013-03-01 02:51:00,31.0,11.0,-100.00,WNW,300,9.0,14.0,43,-99.99,,,-99.99,,2013-03-01 09:51:00,
2013-03-01 03:01:00,31.0,11.0,-100.00,NW,310,7.0,12.0,43,-99.99,,,-99.99,,2013-03-01 10:01:00,
2013-03-01 03:11:00,31.0,11.0,-100.00,NW,325,7.0,10.0,42,-99.99,,,-99.99,,2013-03-01 10:11:00,
2013-03-01 03:21:00,31.0,11.0,-100.00,NW,325,7.0,9.0,43,-99.99,,,-99.99,,2013-03-01 10:21:00,
2013-03-01 03:31:00,30.0,11.0,-100.00,NW,305,6.0,9.0,44,-99.99,,,-99.99,,2013-03-01 10:31:00,
2013-03-01 03:41:00,31.0,11.0,-100.00,NW,320,6.0,9.0,44,-99.99,,,-99.99,,2013-03-01 10:41:00,
2013-03-01 03:51:00,32.0,12.0,-100.00,NNW,330,5.0,7.0,43,-99.99,,,-99.99,,2013-03-01 10:51:00,
2013-03-01 04:01:00,30.0,11.0,-100.00,WNW,295,4.0,7.0,45,-99.99,,,-99.99,,2013-03-01 11:01:00,
2013-03-01 04:11:00,33.0,13.0,-100.00,NNW,335,4.0,9.0,43,-99.99,,,-99.99,,2013-03-01 11:11:00,
2013-03-01 04:22:00,34.0,14.0,-100.00,North,0,7.0,11.0,43,-99.99,,,-99.99,,2013-03-01 11:22:00,
2013-03-01 04:31:00,33.0,13.0,-100.00,NNW,340,4.0,9.0,43,-99.99,,,-99.99,,2013-03-01 11:31:00,
2013-03-01 04:41:00,31.0,12.0,-100.00,SSE,150,1.0,6.0,44,-99.99,,,-99.99,,2013-03-01 11:41:00,
2013-03-01 04:52:00,31.0,13.0,-100.00,NE,55,0.0,6.0,45,-99.99,,,-99.99,,2013-03-01 11:52:00,
2013-03-01 05:01:00,29.0,11.0,-100.00,ESE,120,4.0,4.0,47,-99.99,,,-99.99,,2013-03-01 12:01:00,
2013-03-01 05:11:00,27.0,11.0,-100.00,SE,140,3.0,4.0,49,-99.99,,,-99.99,,2013-03-01 12:11:00,
2013-03-01 05:21:00,28.0,11.0,-100.00,SE,140,2.0,4.0,48,-99.99,,,-99.99,,2013-03-01 12:21:00,
2013-03-01 05:32:00,27.0,11.0,-100.00,SE,145,2.0,4.0,49,-99.99,,,-99.99,,2013-03-01 12:32:00,
2013-03-01 05:41:00,27.0,11.0,-100.00,South,170,1.0,3.0,49,-99.99,,,-99.99,,2013-03-01 12:41:00,
2013-03-01 05:52:00,28.0,12.0,-100.00,East,90,0.0,2.0,49,-99.99,,,-99.99,,2013-03-01 12:52:00,
2013-03-01 06:01:00,30.0,14.0,-100.00,NNW,340,4.0,7.0,50,-99.99,,,-99.99,,2013-03-01 13:01:00,
2013-03-01 06:11:00,33.0,15.0,-100.00,NW,310,6.0,7.0,48,-99.99,,,-99.99,,2013-03-01 13:11:00,
2013-03-01 06:21:00,34.0,16.0,-100.00,NW,310,8.0,9.0,47,-99.99,,,-99.99,,2013-03-01 13:21:00,
2013-03-01 06:32:00,33.0,16.0,-100.00,NW,305,7.0,9.0,48,-99.99,,,-99.99,,2013-03-01 13:32:00,
2013-03-01 06:41:00,34.0,17.0,-100.00,WNW,285,7.0,12.0,48,-99.99,,,-99.99,,2013-03-01 13:41:00,
2013-03-01 06:51:00,34.0,17.0,-100.00,WNW,295,7.0,11.0,48,-99.99,,,-99.99,,2013-03-01 13:51:00,
2013-03-01 07:01:00,32.0,15.0,-100.00,WSW,255,1.0,9.0,48,-99.99,,,-99.99,,2013-03-01 14:01:00,
2013-03-01 07:11:00,26.0,10.0,-100.00,ESE,120,8.0,9.0,51,-99.99,,,-99.99,,2013-03-01 14:11:00,
2013-03-01 07:21:00,24.0,9.0,-100.00,SE,125,9.0,11.0,53,-99.99,,,-99.99,,2013-03-01 14:21:00,
2013-03-01 07:32:00,26.0,11.0,-100.00,SE,125,8.0,11.0,52,-99.99,,,-99.99,,2013-03-01 14:32:00,
2013-03-01 07:41:00,28.0,12.0,-100.00,SE,130,6.0,9.0,50,-99.99,,,-99.99,,2013-03-01 14:41:00,
2013-03-01 07:52:00,31.0,14.0,-100.00,SE,135,4.0,11.0,47,-99.99,,,-99.99,,2013-03-01 14:52:00,
2013-03-01 08:01:00,30.0,13.0,-100.00,ESE,120,6.0,7.0,47,-99.99,,,-99.99,,2013-03-01 15:01:00,
2013-03-01 08:11:00,31.0,14.0,-100.00,East,95,4.0,8.0,47,-99.99,,,-99.99,,2013-03-01 15:11:00,
2013-03-01 08:21:00,32.0,14.0,-100.00,SE,125,5.0,6.0,46,-99.99,,,-99.99,,2013-03-01 15:21:00,
2013-03-01 08:31:00,32.0,14.0,-100.00,ESE,115,9.0,10.0,46,-99.99,,,-99.99,,2013-03-01 15:31:00,
2013-03-01 08:42:00,31.0,13.0,-100.00,SSE,150,6.0,10.0,46,-99.99,,,-99.99,,2013-03-01 15:42:00,
2013-03-01 08:51:00,40.0,19.0,-100.00,NW,320,4.0,12.0,41,-99.99,,,-99.99,,2013-03-01 15:51:00,
2013-03-01 09:01:00,43.0,20.0,-100.00,WNW,300,12.0,19.0,39,-99.99,,,-99.99,,2013-03-01 16:01:00,
2013-03-01 09:11:00,43.0,20.0,-100.00,WNW,300,15.0,21.0,40,-99.99,,,-99.99,,2013-03-01 16:11:00,
2013-03-01 09:21:00,45.0,21.0,-100.00,NW,310,11.0,17.0,37,-99.99,,,-99.99,,2013-03-01 16:21:00,
2013-03-01 09:31:00,45.0,20.0,-100.00,NW,310,16.0,22.0,37,-99.99,,,-99.99,,2013-03-01 16:31:00,
2013-03-01 09:41:00,45.0,20.0,-100.00,NW,315,17.0,28.0,37,-99.99,,,-99.99,,2013-03-01 16:41:00,
2013-03-01 09:51:00,44.0,20.0,-100.00,NW,320,18.0,27.0,37,-99.99,,,-99.99,,2013-03-01 16:51:00,
2013-03-01 10:01:00,43.0,20.0,-100.00,NW,305,20.0,26.0,38,-99.99,,,-99.99,,2013-03-01 17:01:00,
2013-03-01 10:11:00,42.0,20.0,-100.00,NW,310,21.0,27.0,40,-99.99,,,-99.99,,2013-03-01 17:11:00,
2013-03-01 10:21:00,42.0,20.0,-100.00,NW,305,17.0,30.0,42,-99.99,,,-99.99,,2013-03-01 17:21:00,
2013-03-01 10:31:00,42.0,20.0,-100.00,WNW,300,15.0,24.0,42,-99.99,,,-99.99,,2013-03-01 17:31:00,
2013-03-01 10:41:00,42.0,21.0,-100.00,NW,310,16.0,20.0,41,-99.99,,,-99.99,,2013-03-01 17:41:00,
2013-03-01 10:52:00,43.0,21.0,-100.00,NW,315,15.0,18.0,41,-99.99,,,-99.99,,2013-03-01 17:52:00,
2013-03-01 11:01:00,43.0,21.0,-100.00,NW,315,21.0,24.0,40,-99.99,,,-99.99,,2013-03-01 18:01:00,
2013-03-01 11:11:00,44.0,21.0,-100.00,NW,320,17.0,24.0,40,-99.99,,,-99.99,,2013-03-01 18:11:00,
2013-03-01 11:21:00,46.0,21.0,-100.00,NW,310,19.0,24.0,37,-99.99,,,-99.99,,2013-03-01 18:21:00,
2013-03-01 11:31:00,46.0,21.0,-100.00,NNW,330,14.0,21.0,37,-99.99,,,-99.99,,2013-03-01 18:31:00,
2013-03-01 11:41:00,45.0,21.0,-100.00,NW,325,12.0,17.0,37,-99.99,,,-99.99,,2013-03-01 18:41:00,
2013-03-01 11:52:00,45.0,21.0,-100.00,NNW,335,15.0,17.0,37,-99.99,,,-99.99,,2013-03-01 18:52:00,
2013-03-01 12:01:00,45.0,20.0,-100.00,NNW,330,16.0,22.0,37,-99.99,,,-99.99,,2013-03-01 19:01:00,
2013-03-01 12:11:00,46.0,21.0,-100.00,NW,325,19.0,22.0,36,-99.99,,,-99.99,,2013-03-01 19:11:00,
2013-03-01 12:21:00,45.0,20.0,-100.00,NNW,340,19.0,24.0,36,-99.99,,,-99.99,,2013-03-01 19:21:00,
2013-03-01 12:31:00,46.0,21.0,-100.00,NNW,330,19.0,24.0,36,-99.99,,,-99.99,,2013-03-01 19:31:00,
2013-03-01 12:41:00,45.0,20.0,-100.00,NNW,335,19.0,25.0,37,-99.99,,,-99.99,,2013-03-01 19:41:00,
2013-03-01 12:51:00,45.0,21.0,-100.00,NNW,330,15.0,27.0,37,-99.99,,,-99.99,,2013-03-01 19:51:00,
2013-03-01 13:01:00,46.0,21.0,-100.00,NW,320,24.0,28.0,36,-99.99,,,-99.99,,2013-03-01 20:01:00,
2013-03-01 13:11:00,45.0,20.0,-100.00,NNW,340,22.0,30.0,36,-99.99,,,-99.99,,2013-03-01 20:11:00,
2013-03-01 13:21:00,45.0,20.0,-100.00,NNW,345,22.0,30.0,36,-99.99,,,-99.99,,2013-03-01 20:21:00,
2013-03-01 13:31:00,47.0,21.0,-100.00,NNW,330,24.0,28.0,35,-99.99,,,-99.99,,2013-03-01 20:31:00,
2013-03-01 13:41:00,47.0,21.0,-100.00,NW,320,24.0,33.0,35,-99.99,,,-99.99,,2013-03-01 20:41:00,
2013-03-01 13:51:00,47.0,21.0,-100.00,NNW,335,24.0,34.0,35,-99.99,,,-99.99,,2013-03-01 20:51:00,
2013-03-01 14:01:00,48.0,21.0,-100.00,NNW,335,22.0,29.0,34,-99.99,,,-99.99,,2013-03-01 21:01:00,
2013-03-01 14:11:00,48.0,22.0,-100.00,NW,320,18.0,30.0,35,-99.99,,,-99.99,,2013-03-01 21:11:00,
2013-03-01 14:21:00,47.0,21.0,-100.00,NW,325,22.0,28.0,35,-99.99,,,-99.99,,2013-03-01 21:21:00,
2013-03-01 14:31:00,47.0,21.0,-100.00,NNW,330,17.0,30.0,35,-99.99,,,-99.99,,2013-03-01 21:31:00,
2013-03-01 14:41:00,48.0,22.0,-100.00,NNW,330,17.0,22.0,35,-99.99,,,-99.99,,2013-03-01 21:41:00,
2013-03-01 14:51:00,48.0,22.0,-100.00,NW,325,16.0,24.0,34,-99.99,,,-99.99,,2013-03-01 21:51:00,
2013-03-01 15:01:00,48.0,22.0,-100.00,NW,325,14.0,22.0,35,-99.99,,,-99.99,,2013-03-01 22:01:00,
2013-03-01 15:11:00,49.0,22.0,-100.00,NW,320,21.0,27.0,33,-99.99,,,-99.99,,2013-03-01 22:11:00,
2013-03-01 15:21:00,47.0,21.0,-100.00,NW,325,17.0,29.0,35,-99.99,,,-99.99,,2013-03-01 22:21:00,
2013-03-01 15:31:00,46.0,21.0,-100.00,NW,315,17.0,26.0,36,-99.99,,,-99.99,,2013-03-01 22:31:00,
2013-03-01 15:41:00,46.0,21.0,-100.00,NW,305,15.0,23.0,36,-99.99,,,-99.99,,2013-03-01 22:41:00,
2013-03-01 15:51:00,46.0,21.0,-100.00,WNW,300,12.0,21.0,37,-99.99,,,-99.99,,2013-03-01 22:51:00,
2013-03-01 16:01:00,46.0,21.0,-100.00,NW,315,17.0,21.0,37,-99.99,,,-99.99,,2013-03-01 23:01:00,
2013-03-01 16:11:00,45.0,21.0,-100.00,WNW,300,12.0,21.0,38,-99.99,,,-99.99,,2013-03-01 23:11:00,
2013-03-01 16:21:00,45.0,21.0,-100.00,NW,310,18.0,23.0,38,-99.99,,,-99.99,,2013-03-01 23:21:00,
2013-03-01 16:31:00,44.0,22.0,-100.00,NW,310,17.0,22.0,39,-99.99,,,-99.99,,2013-03-01 23:31:00,
2013-03-01 16:41:00,46.0,22.0,-100.00,NW,310,17.0,22.0,38,-99.99,,,-99.99,,2013-03-01 23:41:00,
2013-03-01 16:52:00,46.0,22.0,-100.00,NW,305,15.0,21.0,37,-99.99,,,-99.99,,2013-03-01 23:52:00,
2013-03-01 17:01:00,45.0,22.0,-100.00,NW,310,16.0,24.0,39,-99.99,,,-99.99,,2013-03-02 00:01:00,
2013-03-01 17:11:00,46.0,22.0,-100.00,NW,305,14.0,21.0,38,-99.99,,,-99.99,,2013-03-02 00:11:00,
2013-03-01 17:21:00,46.0,22.0,-100.00,WNW,300,13.0,20.0,38,-99.99,,,-99.99,,2013-03-02 00:21:00,
2013-03-01 17:31:00,46.0,22.0,-100.00,NW,305,11.0,17.0,38,-99.99,,,-99.99,,2013-03-02 00:31:00,
2013-03-01 17:41:00,45.0,22.0,-100.00,NW,305,14.0,17.0,39,-99.99,,,-99.99,,2013-03-02 00:41:00,
2013-03-01 17:52:00,44.0,21.0,-100.00,NW,310,14.0,20.0,39,-99.99,,,-99.99,,2013-03-02 00:52:00,
2013-03-01 18:01:00,43.0,20.0,-100.00,NW,310,19.0,23.0,40,-99.99,,,-99.99,,2013-03-02 01:01:00,
2013-03-01 18:11:00,42.0,20.0,-100.00,NW,315,21.0,26.0,41,-99.99,,,-99.99,,2013-03-02 01:11:00,
2013-03-01 18:21:00,42.0,20.0,-100.00,NW,315,21.0,28.0,41,-99.99,,,-99.99,,2013-03-02 01:21:00,
2013-03-01 18:31:00,41.0,20.0,-100.00,NW,305,16.0,26.0,43,-99.99,,,-99.99,,2013-03-02 01:31:00,
2013-03-01 18:41:00,40.0,20.0,-100.00,WNW,300,16.0,20.0,44,-99.99,,,-99.99,,2013-03-02 01:41:00,
2013-03-01 18:51:00,40.0,21.0,-100.00,WNW,300,17.0,24.0,45,-99.99,,,-99.99,,2013-03-02 01:51:00,
2013-03-01 19:01:00,40.0,21.0,-100.00,NW,310,19.0,24.0,45,-99.99,,,-99.99,,2013-03-02 02:01:00,
2013-03-01 19:11:00,42.0,21.0,-100.00,NW,315,21.0,26.0,43,-99.99,,,-99.99,,2013-03-02 02:11:00,
2013-03-01 19:21:00,39.0,20.0,-100.00,WNW,295,17.0,23.0,46,-99.99,,,-99.99,,2013-03-02 02:21:00,
2013-03-01 19:31:00,39.0,20.0,-100.00,WNW,300,13.0,20.0,46,-99.99,,,-99.99,,2013-03-02 02:31:00,
2013-03-01 19:41:00,39.0,21.0,-100.00,WNW,295,14.0,17.0,46,-99.99,,,-99.99,,2013-03-02 02:41:00,
2013-03-01 19:52:00,40.0,21.0,-100.00,WNW,295,11.0,17.0,45,-99.99,,,-99.99,,2013-03-02 02:52:00,
2013-03-01 20:01:00,39.0,20.0,-100.00,WNW,300,10.0,16.0,46,-99.99,,,-99.99,,2013-03-02 03:01:00,
2013-03-01 20:11:00,39.0,20.0,-100.00,WNW,295,10.0,14.0,47,-99.99,,,-99.99,,2013-03-02 03:11:00,
2013-03-01 20:21:00,39.0,20.0,-100.00,NW,305,11.0,16.0,47,-99.99,,,-99.99,,2013-03-02 03:21:00,
2013-03-01 20:32:00,39.0,20.0,-100.00,WNW,295,12.0,16.0,47,-99.99,,,-99.99,,2013-03-02 03:32:00,
2013-03-01 20:41:00,40.0,21.0,-100.00,WNW,290,16.0,19.0,45,-99.99,,,-99.99,,2013-03-02 03:41:00,
2013-03-01 20:52:00,40.0,20.0,-100.00,WNW,290,16.0,19.0,45,-99.99,,,-99.99,,2013-03-02 03:52:00,
2013-03-01 21:01:00,39.0,20.0,-100.00,WNW,300,14.0,17.0,46,-99.99,,,-99.99,,2013-03-02 04:01:00,
2013-03-01 21:11:00,39.0,20.0,-100.00,WNW,300,14.0,20.0,46,-99.99,,,-99.99,,2013-03-02 04:11:00,
2013-03-01 21:21:00,39.0,21.0,-100.00,WNW,300,15.0,19.0,46,-99.99,,,-99.99,,2013-03-02 04:21:00,
2013-03-01 21:31:00,39.0,21.0,-100.00,NW,305,14.0,17.0,47,-99.99,,,-99.99,,2013-03-02 04:31:00,
2013-03-01 21:41:00,39.0,21.0,-100.00,NW,305,16.0,19.0,47,-99.99,,,-99.99,,2013-03-02 04:41:00,
2013-03-01 21:51:00,39.0,21.0,-100.00,WNW,295,12.0,19.0,48,-99.99,,,-99.99,,2013-03-02 04:51:00,
2013-03-01 22:01:00,40.0,21.0,-100.00,WNW,290,16.0,20.0,47,-99.99,,,-99.99,,2013-03-02 05:01:00,
2013-03-01 22:12:00,40.0,22.0,-100.00,WNW,290,14.0,20.0,47,-99.99,,,-99.99,,2013-03-02 05:12:00,
2013-03-01 22:22:00,40.0,21.0,-100.00,WNW,290,14.0,19.0,46,-99.99,,,-99.99,,2013-03-02 05:22:00,
2013-03-01 22:31:00,41.0,21.0,-100.00,WNW,290,17.0,21.0,45,-99.99,,,-99.99,,2013-03-02 05:31:00,
2013-03-01 22:41:00,41.0,21.0,-100.00,WNW,290,15.0,26.0,43,-99.99,,,-99.99,,2013-03-02 05:41:00,
2013-03-01 22:51:00,42.0,21.0,-100.00,WNW,290,14.0,22.0,43,-99.99,,,-99.99,,2013-03-02 05:51:00,
2013-03-01 23:01:00,41.0,20.0,-100.00,WNW,295,12.0,18.0,43,-99.99,,,-99.99,,2013-03-02 06:01:00,
2013-03-01 23:11:00,41.0,20.0,-100.00,WNW,295,10.0,15.0,43,-99.99,,,-99.99,,2013-03-02 06:11:00,
2013-03-01 23:21:00,40.0,20.0,-100.00,WNW,295,7.0,12.0,43,-99.99,,,-99.99,,2013-03-02 06:21:00,
2013-03-01 23:31:00,41.0,20.0,-100.00,WNW,285,13.0,16.0,42,-99.99,,,-99.99,,2013-03-02 06:31:00,
2013-03-01 23:41:00,42.0,20.0,-100.00,North,350,4.0,17.0,41,-99.99,,,-99.99,,2013-03-02 06:41:00,
2013-03-01 23:51:00,42.0,20.0,-100.00,North,5,1.0,6.0,41,-99.99,,,-99.99,,2013-03-02 06:51:00,